Time;durP1;ratioP1;P1;durP2;ratioP2;P2;SDS_P1;SDS_P2;PMS_P1;PMS_P2;Temp;Humidity;BMP_temperature;BMP_pressure;BME280_temperature;BME280_humidity;BME280_pressure;Samples;Min_cycle;Max_cycle;Signal;HPM_P1;HPM_P2
2021/06/23 00:00:52;;;;;;;35.92;13.27;;;640.10;2432.00;;;;;;5035856;28;20028;-81
2021/06/23 00:03:18;;;;;;;34.67;10.43;;;640.00;2432.00;;;;;;5035682;28;20076;-79
2021/06/23 00:05:44;;;;;;;36.08;11.13;;;615.20;2432.00;;;;;;5035727;28;20029;-81
2021/06/23 00:08:10;;;;;;;33.65;11.82;;;615.20;2432.00;;;;;;5053988;28;20025;-78
2021/06/23 00:10:35;;;;;;;32.42;10.75;;;615.30;2432.00;;;;;;5039230;28;20028;-81
2021/06/23 00:13:05;;;;;;;43.25;11.65;;;640.00;2432.00;;;;;;5038844;28;20029;-79
2021/06/23 00:15:32;;;;;;;31.52;10.77;;;615.30;2432.00;;;;;;5057092;28;20017;-79
2021/06/23 00:17:58;;;;;;;28.17;10.40;;;640.00;2432.00;;;;;;5038903;28;20017;-78
2021/06/23 00:20:25;;;;;;;27.67;10.88;;;615.30;2432.00;;;;;;5039272;28;20025;-80
2021/06/23 00:22:51;;;;;;;32.78;10.80;;;640.00;2432.00;;;;;;5039047;28;20369;-78
2021/06/23 00:25:17;;;;;;;38.00;11.75;;;640.10;2432.00;;;;;;5039030;28;20111;-83
2021/06/23 00:27:43;;;;;;;41.65;10.98;;;640.00;2432.00;;;;;;5056892;28;20103;-80
2021/06/23 00:30:10;;;;;;;28.92;10.25;;;615.30;2432.00;;;;;;5038907;28;20021;-80
2021/06/23 00:32:38;;;;;;;37.60;11.25;;;640.10;2432.00;;;;;;5038795;28;20025;-80
2021/06/23 00:35:05;;;;;;;38.67;13.20;;;615.20;2432.00;;;;;;5038925;28;20082;-81
2021/06/23 00:37:30;;;;;;;31.27;11.23;;;615.10;2432.00;;;;;;5038962;28;20067;-79
2021/06/23 00:39:56;;;;;;;36.67;10.43;;;615.00;2432.00;;;;;;5038568;28;20024;-78
2021/06/23 00:42:22;;;;;;;35.08;11.45;;;615.00;2432.00;;;;;;5038759;28;20060;-81
2021/06/23 00:44:48;;;;;;;35.78;11.05;;;615.10;2432.00;;;;;;5038722;28;20403;-81
2021/06/23 00:47:15;;;;;;;26.45;9.70;;;615.00;2432.00;;;;;;5038570;28;20078;-79
2021/06/23 00:49:42;;;;;;;26.75;11.18;;;615.10;2432.00;;;;;;5038631;28;20111;-80
2021/06/23 00:52:08;;;;;;;31.02;10.68;;;615.00;2432.00;;;;;;5038379;28;20108;-80
2021/06/23 00:54:34;;;;;;;29.58;10.07;;;614.90;2432.00;;;;;;5038410;28;20032;-80
2021/06/23 00:57:05;;;;;;;29.10;10.65;;;614.80;2432.00;;;;;;5056190;28;20067;-81
2021/06/23 00:59:33;;;;;;;31.30;10.18;;;614.80;2432.00;;;;;;5056246;28;20083;-80
2021/06/23 01:02:00;;;;;;;33.83;10.13;;;614.70;2432.00;;;;;;5038162;28;20075;-84
2021/06/23 01:04:26;;;;;;;31.35;9.73;;;614.60;2432.00;;;;;;5034775;28;20045;-80
2021/06/23 01:06:53;;;;;;;32.72;10.65;;;614.70;2432.00;;;;;;5034998;28;20017;-80
2021/06/23 01:09:19;;;;;;;35.72;11.50;;;614.80;2432.00;;;;;;5035149;28;20021;-81
2021/06/23 01:12:21;;;;;;;31.42;10.75;;;614.80;2432.00;;;;;;5034877;28;20415;-78
2021/06/23 01:14:48;;;;;;;30.80;10.53;;;614.80;2432.00;;;;;;5034806;28;20461;-78
2021/06/23 01:17:14;;;;;;;34.60;9.77;;;614.80;2432.00;;;;;;5034818;28;20263;-79
2021/06/23 01:19:44;;;;;;;28.98;9.90;;;614.80;2432.00;;;;;;5034505;28;20024;-80
2021/06/23 01:22:13;;;;;;;40.60;10.90;;;614.80;2432.00;;;;;;5034770;28;20025;-81
2021/06/23 01:24:40;;;;;;;37.10;12.52;;;614.70;2432.00;;;;;;5036273;28;20017;-82
2021/06/23 01:27:07;;;;;;;34.75;11.82;;;614.70;2432.00;;;;;;5034815;28;20037;-81
2021/06/23 01:29:33;;;;;;;40.70;11.43;;;614.70;2432.00;;;;;;5034532;28;20025;-80
2021/06/23 01:31:59;;;;;;;37.33;12.45;;;614.50;2432.00;;;;;;5034588;28;20030;-78
2021/06/23 01:34:25;;;;;;;38.35;10.63;;;614.70;2432.00;;;;;;5034444;28;20025;-80
2021/06/23 01:36:50;;;;;;;35.00;11.75;;;614.70;2432.00;;;;;;5034365;28;20033;-79
2021/06/23 01:39:16;;;;;;;34.25;11.73;;;614.70;2432.00;;;;;;5034329;28;20091;-79
2021/06/23 01:41:42;;;;;;;38.97;11.15;;;614.60;2432.00;;;;;;5033771;28;20453;-81
2021/06/23 01:44:08;;;;;;;47.13;12.80;;;614.60;2432.00;;;;;;5033409;28;20369;-80
2021/06/23 01:46:34;;;;;;;38.33;13.60;;;614.60;2432.00;;;;;;5033811;28;20033;-81
2021/06/23 01:48:59;;;;;;;35.92;11.90;;;614.40;2432.00;;;;;;5033990;28;20025;-84
2021/06/23 01:51:25;;;;;;;25.60;10.52;;;614.50;2432.00;;;;;;5034182;28;20018;-81
2021/06/23 01:53:51;;;;;;;37.08;11.60;;;589.70;2432.00;;;;;;5033648;28;20033;-81
2021/06/23 01:56:17;;;;;;;34.55;13.27;;;614.40;2432.00;;;;;;5033221;28;20021;-79
2021/06/23 01:58:43;;;;;;;30.63;11.13;;;589.60;2432.00;;;;;;5033514;28;20029;-82
2021/06/23 02:01:09;;;;;;;33.72;11.40;;;589.60;2432.00;;;;;;5033538;28;20048;-80
2021/06/23 02:03:54;;;;;;;31.45;10.30;;;589.60;2432.00;;;;;;5033433;28;20461;-81
2021/06/23 02:06:22;;;;;;;35.25;12.68;;;589.50;2432.00;;;;;;5033970;28;20021;-79
2021/06/23 02:09:22;;;;;;;36.85;10.68;;;589.30;2432.00;;;;;;5033624;28;20017;-79
2021/06/23 02:11:54;;;;;;;38.45;11.50;;;589.60;2432.00;;;;;;5025091;28;20025;-80
2021/06/23 02:14:42;;;;;;;29.98;10.27;;;589.60;2432.00;;;;;;5033246;28;20120;-78
2021/06/23 02:17:11;;;;;;;38.45;10.55;;;589.60;2432.00;;;;;;5033153;28;20022;-78
2021/06/23 02:19:46;;;;;;;31.38;9.43;;;589.70;2432.00;;;;;;5033460;28;20388;-79
2021/06/23 02:22:21;;;;;;;35.25;10.50;;;589.70;2432.00;;;;;;5034799;28;20028;-78
2021/06/23 02:24:53;;;;;;;30.58;11.07;;;589.70;2432.00;;;;;;5032781;28;20029;-81
2021/06/23 02:27:20;;;;;;;31.23;9.97;;;589.60;2432.00;;;;;;5017554;28;20026;-79
2021/06/23 02:29:46;;;;;;;34.05;10.75;;;589.60;2432.00;;;;;;5033357;28;20017;-81
2021/06/23 02:32:16;;;;;;;46.00;16.65;;;589.50;2432.00;;;;;;5032315;28;20024;-81
2021/06/23 02:34:47;;;;;;;42.72;15.10;;;589.50;2432.00;;;;;;5033312;28;20030;-80
2021/06/23 02:37:14;;;;;;;36.33;12.88;;;589.20;2432.00;;;;;;5033494;28;20445;-79
2021/06/23 02:39:41;;;;;;;36.17;11.10;;;589.30;2432.00;;;;;;5033323;28;20033;-82
2021/06/23 02:42:08;;;;;;;36.88;10.63;;;589.30;2432.00;;;;;;5033490;28;20025;-83
2021/06/23 02:44:34;;;;;;;33.90;10.80;;;589.40;2432.00;;;;;;5033460;28;20025;-82
2021/06/23 02:47:00;;;;;;;34.90;12.07;;;589.30;2432.00;;;;;;5033936;28;20026;-81
2021/06/23 02:49:26;;;;;;;31.08;11.75;;;589.40;2432.00;;;;;;5035395;28;20051;-81
2021/06/23 02:51:56;;;;;;;28.80;10.90;;;589.30;2432.00;;;;;;5034747;28;20032;-78
2021/06/23 02:54:23;;;;;;;30.20;10.48;;;589.10;2432.00;;;;;;5033524;28;20022;-81
2021/06/23 02:56:50;;;;;;;27.23;10.38;;;589.30;2432.00;;;;;;5033319;28;20364;-82
2021/06/23 02:59:21;;;;;;;37.15;11.73;;;564.00;2432.00;;;;;;5032535;28;20024;-83
2021/06/23 03:01:50;;;;;;;27.80;11.45;;;589.20;2432.00;;;;;;5033059;28;20017;-82
2021/06/23 03:04:16;;;;;;;30.02;9.88;;;589.00;2432.00;;;;;;5043796;28;20045;-82
2021/06/23 03:06:42;;;;;;;33.03;11.05;;;589.10;2432.00;;;;;;5036058;28;20025;-83
2021/06/23 03:09:07;;;;;;;35.70;11.77;;;589.10;2432.00;;;;;;5036249;28;20028;-83
2021/06/23 03:11:35;;;;;;;28.48;9.98;;;589.10;2432.00;;;;;;5036045;28;20055;-82
2021/06/23 03:14:01;;;;;;;26.65;11.57;;;589.10;2432.00;;;;;;5053765;28;20028;-80
2021/06/23 03:16:27;;;;;;;33.47;10.40;;;589.10;2432.00;;;;;;5036271;28;20036;-84
2021/06/23 03:18:53;;;;;;;29.00;10.15;;;589.00;2432.00;;;;;;5036407;28;20074;-82
2021/06/23 03:21:20;;;;;;;34.70;11.18;;;589.20;2432.00;;;;;;5036034;28;20021;-81
2021/06/23 03:23:47;;;;;;;33.10;10.57;;;589.10;2432.00;;;;;;5036269;28;20020;-81
2021/06/23 03:26:13;;;;;;;30.13;10.65;;;589.10;2432.00;;;;;;5036110;28;20456;-81
2021/06/23 03:28:39;;;;;;;35.00;10.68;;;589.20;2432.00;;;;;;5035878;28;20032;-81
2021/06/23 03:31:05;;;;;;;34.38;10.38;;;589.30;2432.00;;;;;;5035939;28;20032;-81
2021/06/23 03:33:31;;;;;;;24.60;10.00;;;589.30;2432.00;;;;;;5035950;28;20472;-83
2021/06/23 03:35:57;;;;;;;27.80;11.88;;;589.20;2432.00;;;;;;5036463;28;20083;-83
2021/06/23 03:38:23;;;;;;;41.13;13.43;;;589.20;2432.00;;;;;;5036026;28;20025;-83
2021/06/23 03:40:49;;;;;;;32.75;11.57;;;589.10;2432.00;;;;;;5035902;28;20025;-81
2021/06/23 03:43:15;;;;;;;41.65;12.95;;;589.10;2432.00;;;;;;5038170;28;20055;-82
2021/06/23 03:45:41;;;;;;;31.58;12.52;;;588.80;2432.00;;;;;;5039771;28;20112;-81
2021/06/23 03:48:07;;;;;;;40.70;12.38;;;589.00;2432.00;;;;;;5039669;28;20433;-80
2021/06/23 03:50:33;;;;;;;37.47;11.32;;;589.10;2432.00;;;;;;5057456;28;20099;-82
2021/06/23 03:53:00;;;;;;;42.22;12.50;;;589.10;2432.00;;;;;;5039654;28;20364;-81
2021/06/23 03:55:26;;;;;;;37.67;12.18;;;589.00;2432.00;;;;;;5039396;28;20029;-81
2021/06/23 03:57:53;;;;;;;38.35;13.95;;;589.00;2432.00;;;;;;5039509;28;20445;-82
2021/06/23 04:00:22;;;;;;;32.58;11.68;;;588.90;2432.00;;;;;;5039213;28;20050;-80
2021/06/23 04:02:48;;;;;;;31.45;12.20;;;589.00;2432.00;;;;;;5039172;28;20033;-80
2021/06/23 04:05:14;;;;;;;37.83;14.45;;;589.00;2432.00;;;;;;5039047;28;20041;-81
2021/06/23 04:07:40;;;;;;;36.17;12.55;;;563.80;2432.00;;;;;;5039583;28;20032;-80
2021/06/23 04:10:08;;;;;;;38.50;13.40;;;589.00;2432.00;;;;;;5039446;28;20025;-81
2021/06/23 04:12:34;;;;;;;39.80;11.93;;;588.80;2432.00;;;;;;5039366;28;20025;-82
2021/06/23 04:15:00;;;;;;;34.85;11.93;;;588.80;2432.00;;;;;;5057184;28;20162;-84
2021/06/23 04:17:26;;;;;;;32.63;12.98;;;588.80;2432.00;;;;;;5039046;28;20408;-82
2021/06/23 04:19:51;;;;;;;35.10;13.85;;;588.90;2432.00;;;;;;5057479;28;20017;-81
2021/06/23 04:22:17;;;;;;;34.67;13.50;;;589.00;2432.00;;;;;;5039387;28;20453;-80
2021/06/23 04:24:43;;;;;;;42.13;12.05;;;588.80;2432.00;;;;;;5039203;28;20346;-85
2021/06/23 04:27:09;;;;;;;35.90;12.93;;;589.00;2432.00;;;;;;5056741;28;20021;-82
2021/06/23 04:29:35;;;;;;;36.65;13.45;;;589.10;2432.00;;;;;;5039223;28;20464;-81
2021/06/23 04:32:01;;;;;;;45.92;14.57;;;589.20;2432.00;;;;;;5038764;28;20017;-83
2021/06/23 04:34:26;;;;;;;39.58;12.73;;;589.30;2432.00;;;;;;5038813;28;20027;-81
2021/06/23 04:36:52;;;;;;;35.15;12.15;;;589.10;2432.00;;;;;;5056206;28;20021;-82
2021/06/23 04:39:18;;;;;;;39.40;12.70;;;589.20;2432.00;;;;;;5038813;28;20025;-81
2021/06/23 04:41:44;;;;;;;40.50;12.95;;;589.20;2432.00;;;;;;5056646;28;20025;-80
2021/06/23 04:44:10;;;;;;;35.15;12.30;;;589.10;2432.00;;;;;;5038541;28;20780;-81
2021/06/23 04:46:36;;;;;;;33.55;11.20;;;589.10;2432.00;;;;;;5038796;28;20032;-78
2021/06/23 04:49:03;;;;;;;33.42;11.15;;;589.10;2432.00;;;;;;5038764;28;20361;-80
2021/06/23 04:51:29;;;;;;;36.78;12.10;;;589.20;2432.00;;;;;;5038369;28;20017;-79
2021/06/23 04:53:55;;;;;;;44.65;12.98;;;589.30;2432.00;;;;;;5037717;28;20453;-79
2021/06/23 04:56:21;;;;;;;35.65;12.38;;;589.30;2432.00;;;;;;5038337;28;20054;-82
2021/06/23 04:58:47;;;;;;;36.25;14.05;;;589.40;2432.00;;;;;;5056036;28;20098;-79
2021/06/23 05:01:13;;;;;;;36.92;12.13;;;589.40;2432.00;;;;;;5038690;28;20021;-82
2021/06/23 05:03:38;;;;;;;37.60;12.93;;;589.40;2432.00;;;;;;5038013;28;20473;-81
2021/06/23 05:06:04;;;;;;;42.38;14.07;;;589.50;2432.00;;;;;;5038033;28;20025;-79
2021/06/23 05:08:31;;;;;;;43.30;14.43;;;589.50;2432.00;;;;;;5037829;28;20053;-81
2021/06/23 05:10:57;;;;;;;41.95;13.90;;;589.50;2432.00;;;;;;5038122;28;20025;-81
2021/06/23 05:13:24;;;;;;;45.13;15.10;;;589.50;2432.00;;;;;;5056084;28;20087;-79
2021/06/23 05:15:51;;;;;;;38.45;14.40;;;589.70;2432.00;;;;;;5037754;28;20047;-79
2021/06/23 05:18:18;;;;;;;39.67;13.00;;;614.40;2432.00;;;;;;5037923;28;20025;-81
2021/06/23 05:20:44;;;;;;;34.85;13.23;;;614.40;2432.00;;;;;;5038039;28;20051;-81
2021/06/23 05:23:10;;;;;;;42.58;13.40;;;614.40;2432.00;;;;;;5037495;28;20425;-80
2021/06/23 05:25:36;;;;;;;46.17;14.10;;;614.50;2432.00;;;;;;5037832;28;20112;-81
2021/06/23 05:28:02;;;;;;;42.53;14.45;;;614.60;2432.00;;;;;;5037691;28;20028;-80
2021/06/23 05:30:28;;;;;;;35.72;15.63;;;614.60;2432.00;;;;;;5037615;28;20028;-83
2021/06/23 05:32:54;;;;;;;35.80;14.63;;;614.70;2432.00;;;;;;5037580;28;20036;-84
2021/06/23 05:35:21;;;;;;;37.10;12.15;;;614.70;2432.00;;;;;;5055401;28;20104;-80
2021/06/23 05:37:47;;;;;;;41.03;12.52;;;614.80;2432.00;;;;;;5037591;28;20021;-79
2021/06/23 05:40:13;;;;;;;34.30;12.65;;;614.80;2432.00;;;;;;5055417;28;20506;-81
2021/06/23 05:42:40;;;;;;;39.65;12.23;;;614.90;2432.00;;;;;;5055084;28;20372;-80
2021/06/23 05:45:06;;;;;;;40.67;13.07;;;614.90;2432.00;;;;;;5036873;28;20043;-81
2021/06/23 05:47:32;;;;;;;38.22;13.05;;;614.90;2432.00;;;;;;5055082;28;20089;-81
2021/06/23 05:49:59;;;;;;;32.42;11.65;;;615.00;2432.00;;;;;;5037629;28;20445;-81
2021/06/23 05:52:25;;;;;;;42.95;14.50;;;615.30;2432.00;;;;;;5037166;28;20025;-79
2021/06/23 05:54:51;;;;;;;38.30;11.93;;;615.20;2432.00;;;;;;5054729;28;20029;-82
2021/06/23 05:57:16;;;;;;;37.65;13.43;;;640.00;2432.00;;;;;;5036643;28;20025;-79
2021/06/23 05:59:42;;;;;;;37.72;12.45;;;640.10;2432.00;;;;;;5036335;28;20025;-80
2021/06/23 06:02:08;;;;;;;39.95;11.18;;;640.30;2432.00;;;;;;5036828;28;20021;-79
2021/06/23 06:04:34;;;;;;;40.92;13.75;;;640.50;2432.00;;;;;;5036355;28;20127;-77
2021/06/23 06:07:00;;;;;;;31.02;10.80;;;640.70;2432.00;;;;;;5035858;28;20055;-79
2021/06/23 06:09:26;;;;;;;44.85;14.70;;;640.90;2432.00;;;;;;5036461;28;20112;-77
2021/06/23 06:11:52;;;;;;;51.92;13.52;;;640.90;2432.00;;;;;;5053428;28;20464;-81
2021/06/23 06:14:17;;;;;;;65.28;16.30;;;665.60;2432.00;;;;;;5036026;28;20033;-76
2021/06/23 06:16:43;;;;;;;43.67;12.95;;;665.80;2432.00;;;;;;5054383;28;20032;-79
2021/06/23 06:19:09;;;;;;;37.30;11.88;;;666.00;2432.00;;;;;;5054128;28;20021;-78
2021/06/23 06:21:35;;;;;;;33.72;10.75;;;666.00;2432.00;;;;;;5054362;28;20365;-79
2021/06/23 06:24:00;;;;;;;31.33;11.43;;;666.10;2432.00;;;;;;5036246;28;20032;-77
2021/06/23 06:26:27;;;;;;;43.55;12.18;;;666.10;2432.00;;;;;;5053243;28;20444;-78
2021/06/23 06:28:53;;;;;;;36.60;12.25;;;666.30;2432.00;;;;;;5035765;28;20067;-77
2021/06/23 06:31:19;;;;;;;47.05;14.90;;;666.40;2432.00;;;;;;5054155;28;20020;-78
2021/06/23 06:33:45;;;;;;;44.95;14.45;;;666.50;2432.00;;;;;;5053880;28;20029;-78
2021/06/23 06:36:11;;;;;;;49.35;13.05;;;691.30;2432.00;;;;;;5035927;28;20028;-78
2021/06/23 06:38:37;;;;;;;38.25;11.23;;;691.30;2432.00;;;;;;5054454;28;20029;-75
2021/06/23 06:41:03;;;;;;;38.15;11.82;;;691.30;2432.00;;;;;;5036147;28;20025;-78
2021/06/23 06:43:28;;;;;;;39.40;17.75;;;691.40;2432.00;;;;;;5036396;28;20368;-79
2021/06/23 06:45:56;;;;;;;38.22;13.57;;;691.40;2432.00;;;;;;5054083;28;20036;-79
2021/06/23 06:48:24;;;;;;;40.15;15.13;;;691.60;2432.00;;;;;;5035926;28;20445;-78
2021/06/23 06:50:49;;;;;;;50.25;17.75;;;691.80;2432.00;;;;;;5036230;28;20021;-77
2021/06/23 06:53:16;;;;;;;37.95;17.02;;;692.10;2432.00;;;;;;5036138;28;20033;-78
2021/06/23 06:55:41;;;;;;;45.70;19.55;;;716.80;2432.00;;;;;;5036099;28;20025;-79
2021/06/23 06:58:07;;;;;;;44.03;14.38;;;692.10;2432.00;;;;;;5040572;28;20150;-78
2021/06/23 07:00:33;;;;;;;36.95;11.80;;;716.80;2432.00;;;;;;5045646;28;20357;-79
2021/06/23 07:02:59;;;;;;;38.53;14.52;;;717.10;2432.00;;;;;;5035972;28;20025;-78
2021/06/23 07:05:25;;;;;;;43.75;15.55;;;717.20;2432.00;;;;;;5035523;28;20049;-77
2021/06/23 07:07:52;;;;;;;43.58;13.43;;;717.40;2432.00;;;;;;5035612;28;20028;-79
2021/06/23 07:10:18;;;;;;;46.47;13.88;;;717.40;2432.00;;;;;;5035823;28;20025;-80
2021/06/23 07:12:44;;;;;;;45.95;14.35;;;717.40;2432.00;;;;;;5035681;28;20032;-79
2021/06/23 07:15:10;;;;;;;43.50;13.55;;;717.60;2432.00;;;;;;5035553;28;20029;-77
2021/06/23 07:17:36;;;;;;;59.70;13.98;;;742.70;2432.00;;;;;;5038285;28;20082;-79
2021/06/23 07:20:04;;;;;;;40.15;10.32;;;742.40;2432.00;;;;;;5042377;28;20021;-77
2021/06/23 07:22:30;;;;;;;43.92;17.42;;;717.40;2432.00;;;;;;5051173;28;20020;-79
2021/06/23 07:24:56;;;;;;;84.65;63.33;;;742.50;2432.00;;;;;;5047626;28;20020;-78
2021/06/23 07:27:22;;;;;;;36.05;12.90;;;742.50;2432.00;;;;;;5066581;28;20074;-78
2021/06/23 07:29:50;;;;;;;47.58;13.77;;;742.70;2432.00;;;;;;5069062;28;20017;-79
2021/06/23 07:32:26;;;;;;;37.85;11.65;;;742.80;2432.00;;;;;;5049938;28;20066;-81
2021/06/23 07:37:51;;;;;;;44.97;13.27;;;742.90;2432.00;;;;;;5015804;28;20033;-80
2021/06/23 07:40:18;;;;;;;38.78;10.57;;;743.00;2432.00;;;;;;5043263;28;20032;-80
2021/06/23 07:42:44;;;;;;;38.47;11.98;;;743.20;2432.00;;;;;;5042883;28;20065;-80
2021/06/23 07:45:12;;;;;;;35.38;10.55;;;743.30;2432.00;;;;;;5060304;28;20483;-81
2021/06/23 07:47:39;;;;;;;37.55;12.73;;;768.10;2432.00;;;;;;5042365;28;20457;-78
2021/06/23 07:50:06;;;;;;;57.13;27.98;;;743.30;2432.00;;;;;;5041891;28;20029;-80
2021/06/23 07:52:43;;;;;;;45.97;17.35;;;743.30;2432.00;;;;;;5042049;28;20471;-78
2021/06/23 08:09:00;;;;;;;42.85;12.98;;;768.70;2432.00;;;;;;5058472;28;20020;-79
2021/06/23 08:11:31;;;;;;;41.47;11.60;;;793.70;2432.00;;;;;;5041362;28;20234;-81
2021/06/23 08:13:58;;;;;;;43.25;11.00;;;793.90;2432.00;;;;;;5041682;28;20021;-80
2021/06/23 08:16:24;;;;;;;42.30;11.50;;;794.00;2432.00;;;;;;5059640;28;20025;-80
2021/06/23 08:18:49;;;;;;;37.97;11.13;;;794.00;2432.00;;;;;;5041425;28;20017;-80
2021/06/23 08:21:15;;;;;;;42.78;10.48;;;794.20;2432.00;;;;;;5041515;28;20103;-80
2021/06/23 08:23:41;;;;;;;44.63;11.48;;;794.30;2432.00;;;;;;5041744;28;20100;-80
2021/06/23 08:26:07;;;;;;;41.60;11.70;;;794.40;2432.00;;;;;;5041162;28;20471;-80
2021/06/23 08:28:33;;;;;;;40.08;9.93;;;794.50;2432.00;;;;;;5040323;28;20025;-79
2021/06/23 08:30:59;;;;;;;38.00;11.05;;;794.30;2432.00;;;;;;5038473;28;20076;-80
2021/06/23 08:33:27;;;;;;;40.92;11.75;;;819.30;2432.00;;;;;;5038215;28;20032;-85
2021/06/23 08:35:54;;;;;;;38.65;10.50;;;819.50;2432.00;;;;;;5038500;28;20021;-81
2021/06/23 08:38:21;;;;;;;36.13;10.57;;;819.80;2432.00;;;;;;5038415;28;20021;-81
2021/06/23 08:40:47;;;;;;;41.15;11.07;;;819.80;2432.00;;;;;;5055802;28;20017;-81
2021/06/23 08:43:16;;;;;;;45.15;10.98;;;820.10;2432.00;;;;;;5038603;28;20025;-81
2021/06/23 08:45:42;;;;;;;41.25;9.73;;;844.80;2432.00;;;;;;5038205;28;20029;-80
2021/06/23 08:48:09;;;;;;;39.80;11.02;;;820.00;2355.20;;;;;;5038158;28;20029;-81
2021/06/23 08:50:35;;;;;;;34.47;10.15;;;819.90;2329.60;;;;;;5038309;28;20074;-80
2021/06/23 08:53:00;;;;;;;38.47;11.40;;;820.10;2304.00;;;;;;5055970;28;20035;-82
2021/06/23 08:55:26;;;;;;;45.80;10.00;;;844.80;2329.60;;;;;;5038637;28;20024;-81
2021/06/23 08:57:53;;;;;;;42.40;11.43;;;845.10;2329.60;;;;;;5038195;28;20471;-82
2021/06/23 09:00:21;;;;;;;48.50;12.32;;;845.20;2329.60;;;;;;5038087;28;20020;-83
2021/06/23 09:02:47;;;;;;;36.58;11.55;;;845.40;2304.00;;;;;;5038336;28;20060;-83
2021/06/23 09:05:16;;;;;;;39.97;9.90;;;845.70;2278.40;;;;;;5034790;28;20132;-82
2021/06/23 09:07:48;;;;;;;24.20;8.55;;;870.50;2252.80;;;;;;5034477;28;20017;-81
2021/06/23 09:10:31;;;;;;;41.47;12.27;;;845.50;2176.00;;;;;;5035043;28;20017;-81
2021/06/23 09:13:00;;;;;;;35.80;11.57;;;845.10;2227.20;;;;;;5034685;28;20083;-82
2021/06/23 09:15:46;;;;;;;40.67;10.02;;;845.40;2227.20;;;;;;5034453;28;20462;-83
2021/06/23 09:18:17;;;;;;;40.55;9.15;;;845.70;2227.20;;;;;;5034666;28;20048;-80
2021/06/23 09:20:45;;;;;;;30.45;9.52;;;870.60;2150.40;;;;;;5034311;28;20025;-80
2021/06/23 09:23:12;;;;;;;44.88;12.45;;;870.50;2176.00;;;;;;5034422;28;20084;-81
2021/06/23 09:25:39;;;;;;;42.08;12.73;;;870.70;2201.60;;;;;;5035661;28;20022;-80
2021/06/23 09:28:13;;;;;;;37.40;13.70;;;870.90;2201.60;;;;;;5034058;28;20052;-81
2021/06/23 09:30:42;;;;;;;43.42;12.25;;;870.90;2150.40;;;;;;5034525;28;20017;-80
2021/06/23 09:33:21;;;;;;;41.97;12.52;;;871.10;2124.80;;;;;;5034207;28;20041;-81
2021/06/23 09:35:56;;;;;;;40.55;11.10;;;871.30;2124.80;;;;;;5033942;28;20338;-82
2021/06/23 09:38:48;;;;;;;37.40;9.93;;;896.10;2124.80;;;;;;5034239;28;20024;-81
2021/06/23 09:41:20;;;;;;;46.53;10.90;;;896.20;2073.60;;;;;;5034175;28;20025;-83
2021/06/23 09:43:49;;;;;;;43.40;12.10;;;896.50;2099.20;;;;;;5033839;28;20029;-83
2021/06/23 09:46:20;;;;;;;45.75;12.10;;;896.60;2099.20;;;;;;5034308;28;20036;-83
2021/06/23 09:48:47;;;;;;;32.72;11.50;;;896.70;2073.60;;;;;;5033771;28;20026;-77
2021/06/23 09:51:20;;;;;;;34.42;10.23;;;896.60;2048.00;;;;;;5035143;28;20079;-81
2021/06/23 09:53:47;;;;;;;34.60;10.60;;;896.60;1996.80;;;;;;5033927;28;20029;-81
2021/06/23 09:56:29;;;;;;;38.25;11.98;;;896.90;1996.80;;;;;;5033745;28;20373;-80
2021/06/23 09:58:56;;;;;;;38.33;10.05;;;896.90;1971.20;;;;;;5034922;28;20022;-79
2021/06/23 10:01:23;;;;;;;38.08;11.68;;;922.00;1971.20;;;;;;5033186;28;20064;-82
2021/06/23 10:04:08;;;;;;;37.60;10.48;;;896.70;1945.60;;;;;;5040107;28;20045;-81
2021/06/23 10:06:40;;;;;;;41.92;9.93;;;896.90;1920.00;;;;;;5017227;28;20396;-80
2021/06/23 10:09:26;;;;;;;38.00;9.13;;;921.60;1945.60;;;;;;5034927;28;20022;-79
2021/06/23 10:11:53;;;;;;;47.15;10.20;;;921.80;1945.60;;;;;;5016929;28;20021;-80
2021/06/23 10:14:20;;;;;;;35.15;9.73;;;921.90;1920.00;;;;;;5016708;28;20038;-82
2021/06/23 10:16:49;;;;;;;36.15;9.73;;;896.70;1894.40;;;;;;5016738;28;20021;-80
2021/06/23 10:19:15;;;;;;;41.35;10.20;;;921.70;1894.40;;;;;;5017259;28;20037;-81
2021/06/23 10:21:40;;;;;;;30.13;10.32;;;922.00;1920.00;;;;;;5016964;28;20022;-80
2021/06/23 10:24:09;;;;;;;39.45;12.27;;;922.00;1868.80;;;;;;5017987;28;20373;-81
2021/06/23 10:26:44;;;;;;;41.38;12.95;;;922.40;1843.20;;;;;;5017685;28;20495;-81
2021/06/23 10:29:13;;;;;;;34.92;11.30;;;922.50;1843.20;;;;;;5017738;28;20365;-80
2021/06/23 10:31:41;;;;;;;40.70;10.10;;;922.30;1817.60;;;;;;5016640;28;20025;-80
2021/06/23 10:34:08;;;;;;;38.75;10.25;;;922.00;1817.60;;;;;;5016704;28;20043;-82
2021/06/23 10:36:34;;;;;;;35.67;9.80;;;922.00;1792.00;;;;;;5016541;28;20286;-82
2021/06/23 10:39:03;;;;;;;39.45;8.63;;;922.40;1792.00;;;;;;5016266;28;20524;-82
2021/06/23 10:41:36;;;;;;;51.67;10.55;;;922.50;1766.40;;;;;;5034252;28;20021;-82
2021/06/23 10:44:16;;;;;;;42.45;12.75;;;922.40;1740.80;;;;;;5016551;28;20025;-79
2021/06/23 10:46:43;;;;;;;36.92;10.75;;;947.40;1792.00;;;;;;5016238;28;20108;-83
2021/06/23 10:49:10;;;;;;;33.15;9.13;;;947.80;1740.80;;;;;;5016392;28;20022;-79
2021/06/23 10:51:40;;;;;;;29.02;8.05;;;947.80;1689.60;;;;;;5015715;28;20361;-78
2021/06/23 10:54:31;;;;;;;31.65;9.60;;;947.70;1664.00;;;;;;5016260;28;20036;-79
2021/06/23 10:56:57;;;;;;;35.40;10.00;;;947.40;1664.00;;;;;;5016301;28;20027;-80
2021/06/23 10:59:35;;;;;;;37.40;10.25;;;947.40;1664.00;;;;;;5015660;28;20074;-78
2021/06/23 11:02:09;;;;;;;40.40;12.07;;;947.30;1664.00;;;;;;5016414;28;20021;-80
2021/06/23 11:05:06;;;;;;;34.75;9.20;;;948.00;1664.00;;;;;;5012799;28;20389;-79
2021/06/23 11:07:41;;;;;;;39.78;14.23;;;972.80;1638.40;;;;;;5012719;28;20072;-79
2021/06/23 11:10:16;;;;;;;37.65;10.75;;;973.10;1664.00;;;;;;5013281;28;20048;-80
2021/06/23 11:12:52;;;;;;;44.88;11.57;;;973.20;1638.40;;;;;;5012872;28;20065;-82
2021/06/23 11:15:39;;;;;;;35.00;9.95;;;973.40;1638.40;;;;;;5013285;28;20361;-80
2021/06/23 11:18:31;;;;;;;39.92;9.45;;;973.60;1561.60;;;;;;5014518;28;20022;-81
2021/06/23 11:21:18;;;;;;;31.95;9.48;;;973.60;1587.20;;;;;;5013034;28;20032;-82
2021/06/23 11:23:52;;;;;;;36.90;10.32;;;973.20;1587.20;;;;;;5014164;28;20029;-81
2021/06/23 11:26:21;;;;;;;43.13;10.15;;;972.80;1612.80;;;;;;5012809;28;20117;-81
2021/06/23 11:28:55;;;;;;;38.33;9.77;;;948.10;1612.80;;;;;;5012742;28;20458;-80
2021/06/23 11:31:22;;;;;;;28.25;8.90;;;972.90;1612.80;;;;;;5012977;28;20025;-81
2021/06/23 11:33:57;;;;;;;35.33;8.48;;;948.10;1612.80;;;;;;5012511;28;20034;-82
2021/06/23 11:36:24;;;;;;;39.63;10.52;;;972.90;1587.20;;;;;;5012876;28;20030;-81
2021/06/23 11:38:55;;;;;;;41.80;8.98;;;948.10;1638.40;;;;;;5012607;28;20026;-81
2021/06/23 11:41:21;;;;;;;44.97;10.23;;;973.20;1587.20;;;;;;5012559;28;20413;-81
2021/06/23 11:43:48;;;;;;;25.70;7.68;;;973.50;1561.60;;;;;;5012662;28;20030;-81
2021/06/23 11:46:15;;;;;;;40.55;8.27;;;973.70;1561.60;;;;;;5012773;28;20369;-80
2021/06/23 11:48:41;;;;;;;38.42;10.20;;;973.50;1510.40;;;;;;5012091;28;20104;-80
2021/06/23 11:51:09;;;;;;;28.70;8.90;;;973.20;1510.40;;;;;;5012587;28;20033;-81
2021/06/23 11:53:35;;;;;;;31.95;8.05;;;973.50;1510.40;;;;;;5012466;28;20072;-80
2021/06/23 11:56:01;;;;;;;31.02;9.35;;;973.40;1484.80;;;;;;5012386;28;20497;-81
2021/06/23 11:58:27;;;;;;;37.25;9.43;;;973.20;1510.40;;;;;;5012654;28;20022;-80
2021/06/23 12:00:53;;;;;;;37.85;8.30;;;973.70;1510.40;;;;;;5012683;28;20365;-81
2021/06/23 12:03:19;;;;;;;32.97;9.57;;;973.70;1536.00;;;;;;5014951;28;20021;-81
2021/06/23 12:05:46;;;;;;;31.98;9.35;;;973.70;1561.60;;;;;;5018846;28;20032;-82
2021/06/23 12:08:13;;;;;;;33.83;9.38;;;973.70;1510.40;;;;;;5019500;28;20377;-82
2021/06/23 12:10:40;;;;;;;48.67;9.55;;;998.60;1536.00;;;;;;5019097;28;20017;-81
2021/06/23 12:13:09;;;;;;;26.00;7.13;;;973.20;1510.40;;;;;;5037083;28;20025;-82
2021/06/23 12:15:35;;;;;;;31.30;7.57;;;973.50;1612.80;;;;;;5018968;28;20515;-80
2021/06/23 12:18:04;;;;;;;34.72;10.35;;;998.40;1536.00;;;;;;5037357;28;20030;-81
2021/06/23 12:20:32;;;;;;;27.38;8.57;;;973.70;1510.40;;;;;;5019122;28;20052;-80
2021/06/23 12:23:00;;;;;;;25.30;7.50;;;998.90;1433.60;;;;;;5018979;28;20021;-82